Time;durP1;ratioP1;P1;durP2;ratioP2;P2;SDS_P1;SDS_P2;PMS_P1;PMS_P2;Temp;Humidity;BMP_temperature;BMP_pressure;BME280_temperature;BME280_humidity;BME280_pressure;Samples;Min_cycle;Max_cycle;Signal;HPM_P1;HPM_P2
2022/08/17 00:00:22;;;;;;;23.10;19.75;;;;;;;20.74;68.12;100853.00;5083495;28;20031;-77
2022/08/17 00:03:14;;;;;;;23.45;19.77;;;;;;;20.76;66.38;100845.81;5080976;28;20020;-78
2022/08/17 00:05:43;;;;;;;21.35;18.35;;;;;;;20.72;68.46;100841.66;5067525;28;20052;-77
2022/08/17 00:08:11;;;;;;;21.27;18.98;;;;;;;20.71;69.05;100838.16;5082845;28;20421;-78
2022/08/17 00:10:37;;;;;;;21.77;19.48;;;;;;;20.71;68.58;100843.44;5083022;28;20039;-78
2022/08/17 00:13:09;;;;;;;25.65;19.45;;;;;;;20.71;68.08;100840.81;5082399;28;20027;-78
2022/08/17 00:15:34;;;;;;;23.80;19.85;;;;;;;20.72;68.41;100841.66;5085660;28;20036;-78
2022/08/17 00:17:59;;;;;;;23.35;19.52;;;;;;;20.70;68.83;100836.47;5084880;28;20027;-77
2022/08/17 00:20:25;;;;;;;24.25;20.63;;;;;;;20.72;69.62;100829.28;5083759;28;20032;-77
2022/08/17 00:23:04;;;;;;;21.17;18.98;;;;;;;20.72;68.34;100826.63;5086443;28;20016;-78
2022/08/17 00:25:30;;;;;;;21.90;19.60;;;;;;;20.71;68.93;100829.41;5082541;28;20114;-77
2022/08/17 00:27:55;;;;;;;22.75;19.60;;;;;;;20.71;69.07;100832.03;5081883;28;20120;-77
2022/08/17 00:30:20;;;;;;;21.88;19.38;;;;;;;20.69;69.64;100821.56;5083682;28;20487;-76
2022/08/17 00:32:46;;;;;;;21.25;18.92;;;;;;;20.69;69.21;100823.38;5086695;28;20025;-77
2022/08/17 00:35:16;;;;;;;21.95;19.23;;;;;;;20.70;68.78;100825.91;5076806;28;20490;-77
2022/08/17 00:37:41;;;;;;;22.65;19.48;;;;;;;20.68;68.92;100819.03;5080998;28;20028;-80
2022/08/17 00:40:11;;;;;;;22.45;20.15;;;;;;;20.67;69.08;100815.53;5084767;28;20032;-78
2022/08/17 00:42:37;;;;;;;28.58;19.75;;;;;;;20.66;69.70;100816.50;5064508;28;20127;-78
2022/08/17 00:45:04;;;;;;;22.13;18.92;;;;;;;20.67;69.15;100812.06;5084665;28;20108;-78
2022/08/17 00:47:30;;;;;;;23.35;19.83;;;;;;;20.65;68.96;100811.31;5084377;28;20032;-78
2022/08/17 00:49:56;;;;;;;21.83;19.00;;;;;;;20.62;69.43;100809.75;5081296;28;20131;-78
2022/08/17 00:52:27;;;;;;;21.73;19.45;;;;;;;20.61;69.67;100805.41;5080869;28;20024;-78
2022/08/17 00:54:54;;;;;;;21.42;18.95;;;;;;;20.62;70.15;100812.38;5081904;28;20058;-78
2022/08/17 00:57:31;;;;;;;22.90;19.42;;;;;;;20.60;69.85;100809.00;5082931;28;20039;-78
2022/08/17 01:00:04;;;;;;;22.30;19.13;;;;;;;20.60;69.95;100806.34;5079589;28;20034;-78
2022/08/17 01:02:33;;;;;;;21.95;19.35;;;;;;;20.59;69.49;100802.84;5083328;28;20100;-78
2022/08/17 01:04:59;;;;;;;22.83;19.05;;;;;;;20.59;69.20;100805.50;5079619;28;20031;-78
2022/08/17 01:07:26;;;;;;;22.10;19.75;;;;;;;20.59;69.65;100807.31;5084769;28;20536;-78
2022/08/17 01:09:52;;;;;;;23.63;19.92;;;;;;;20.59;69.32;100804.66;5084509;28;20035;-78
2022/08/17 01:12:17;;;;;;;22.88;20.40;;;;;;;20.58;69.62;100800.31;5083332;28;20462;-78
2022/08/17 01:14:42;;;;;;;22.27;19.83;;;;;;;20.57;69.68;100803.91;5076846;28;20051;-78
2022/08/17 01:17:08;;;;;;;22.92;20.48;;;;;;;20.57;69.85;100798.63;5060082;28;20038;-78
2022/08/17 01:19:38;;;;;;;22.23;19.67;;;;;;;20.57;69.99;100794.19;5063150;28;20028;-78
2022/08/17 01:22:13;;;;;;;23.60;20.65;;;;;;;20.59;68.96;100797.56;5084554;28;20027;-78
2022/08/17 01:24:42;;;;;;;22.95;20.45;;;;;;;20.60;69.18;100795.78;5063516;28;20441;-78
2022/08/17 01:27:08;;;;;;;25.00;20.25;;;;;;;20.61;69.33;100787.72;5078925;28;20057;-78
2022/08/17 01:29:35;;;;;;;21.52;19.33;;;;;;;20.62;68.93;100785.94;5080625;28;20044;-78
2022/08/17 01:32:04;;;;;;;22.10;19.80;;;;;;;20.61;69.24;100778.97;5088724;28;20020;-78
2022/08/17 01:34:31;;;;;;;23.80;19.35;;;;;;;20.63;69.36;100777.06;5080691;28;20383;-78
2022/08/17 01:36:57;;;;;;;20.95;18.52;;;;;;;20.62;69.54;100775.38;5077489;28;20386;-78
2022/08/17 01:39:43;;;;;;;21.33;19.08;;;;;;;20.62;68.47;100773.56;5076951;28;20020;-78
2022/08/17 01:42:22;;;;;;;23.67;19.10;;;;;;;20.63;69.03;100766.50;5075503;28;20115;-78
2022/08/17 01:44:53;;;;;;;20.67;18.38;;;;;;;20.61;69.80;100774.50;5085556;28;20193;-78
2022/08/17 01:47:18;;;;;;;;;;;;;;;20.68;67.38;100761.72;5077171;28;20068;-78
2022/08/17 01:49:44;;;;;;;22.23;17.52;;;;;;;20.63;69.39;100763.84;5085498;28;20371;-78
2022/08/17 01:52:10;;;;;;;21.77;18.25;;;;;;;20.61;69.39;100769.22;5074807;28;20070;-78
2022/08/17 01:54:39;;;;;;;21.73;18.88;;;;;;;20.59;69.49;100778.22;5083167;28;20035;-78
2022/08/17 01:57:05;;;;;;;21.00;18.40;;;;;;;20.57;69.92;100772.19;5078349;28;20036;-78
2022/08/17 01:59:31;;;;;;;22.52;19.52;;;;;;;20.57;70.15;100772.19;5078834;28;20441;-78
2022/08/17 02:01:56;;;;;;;23.48;19.60;;;;;;;20.55;70.13;100767.03;5089666;28;20024;-78
2022/08/17 02:04:22;;;;;;;22.30;19.88;;;;;;;20.52;69.72;100763.72;5085164;28;20039;-78
2022/08/17 02:06:47;;;;;;;22.52;20.05;;;;;;;20.51;69.99;100768.19;5078363;28;20020;-78
2022/08/17 02:09:13;;;;;;;22.15;19.75;;;;;;;20.49;69.49;100774.53;5076003;28;20029;-78
2022/08/17 02:11:38;;;;;;;23.75;20.23;;;;;;;20.47;69.70;100762.28;5078206;28;20020;-78
2022/08/17 02:14:06;;;;;;;23.02;20.42;;;;;;;20.46;69.58;100765.88;5077641;28;20403;-78
2022/08/17 02:16:33;;;;;;;21.77;19.48;;;;;;;20.45;70.07;100763.31;5073804;28;20024;-78
2022/08/17 02:19:00;;;;;;;24.65;19.77;;;;;;;20.43;70.01;100759.94;5083459;28;20399;-78
2022/08/17 02:21:25;;;;;;;21.48;19.17;;;;;;;20.40;70.54;100763.63;5054951;28;20033;-78
2022/08/17 02:23:51;;;;;;;24.10;19.88;;;;;;;20.39;70.23;100755.81;5079467;28;20034;-78
2022/08/17 02:26:16;;;;;;;21.45;19.15;;;;;;;20.39;70.04;100767.22;5079581;28;20057;-78
2022/08/17 02:28:41;;;;;;;23.92;19.90;;;;;;;20.35;70.27;100770.19;5081072;28;20552;-78
2022/08/17 02:31:10;;;;;;;22.73;19.77;;;;;;;20.30;70.46;100763.41;5078234;28;20467;-78
2022/08/17 02:33:36;;;;;;;22.05;19.35;;;;;;;20.25;70.84;100754.94;5080926;28;20039;-78
2022/08/17 02:36:03;;;;;;;23.50;20.70;;;;;;;20.21;71.01;100761.41;5075669;28;20052;-78
2022/08/17 02:38:30;;;;;;;23.63;20.98;;;;;;;20.19;70.69;100757.16;5079066;28;20040;-78
2022/08/17 02:40:59;;;;;;;22.13;19.83;;;;;;;20.15;71.37;100752.09;5059336;28;20036;-78
2022/08/17 02:43:26;;;;;;;24.70;19.70;;;;;;;20.13;71.32;100751.38;5084597;28;20024;-78
2022/08/17 02:45:51;;;;;;;22.67;19.92;;;;;;;20.12;70.92;100754.97;5075505;28;20486;-78
2022/08/17 02:48:17;;;;;;;22.65;20.20;;;;;;;20.14;70.68;100752.19;5086714;28;20086;-78
2022/08/17 02:50:42;;;;;;;23.52;20.35;;;;;;;20.12;70.67;100756.75;5078569;28;20023;-78
2022/08/17 02:53:07;;;;;;;24.92;19.83;;;;;;;20.10;70.61;100750.72;5075609;28;20398;-78
2022/08/17 02:55:35;;;;;;;25.00;20.05;;;;;;;20.07;70.95;100743.03;5077037;28;20020;-78
2022/08/17 02:58:02;;;;;;;23.27;20.10;;;;;;;20.04;71.54;100749.34;5085421;28;20033;-78
2022/08/17 03:00:32;;;;;;;23.13;20.65;;;;;;;20.03;71.66;100742.34;5059941;28;20081;-78
2022/08/17 03:02:59;;;;;;;22.30;19.65;;;;;;;20.04;71.53;100735.31;5076330;28;20105;-78
2022/08/17 03:05:27;;;;;;;23.40;19.17;;;;;;;20.01;71.35;100736.34;5081173;28;20028;-78
2022/08/17 03:07:52;;;;;;;24.55;20.23;;;;;;;19.98;71.25;100733.94;5087821;28;20039;-78
2022/08/17 03:10:19;;;;;;;22.55;19.85;;;;;;;19.96;71.36;100741.94;5074512;28;20107;-78
2022/08/17 03:12:45;;;;;;;22.92;19.90;;;;;;;19.95;71.39;100734.13;5081838;28;20056;-78
2022/08/17 03:15:20;;;;;;;24.60;19.90;;;;;;;19.93;71.22;100731.56;5085041;28;20125;-78
2022/08/17 03:17:45;;;;;;;21.70;19.42;;;;;;;19.90;71.45;100730.94;5080240;28;20045;-78
2022/08/17 03:20:12;;;;;;;22.42;19.92;;;;;;;19.86;71.40;100733.75;5082457;28;20140;-78
2022/08/17 03:22:41;;;;;;;23.05;20.55;;;;;;;19.80;71.91;100734.19;5083112;28;20120;-78
2022/08/17 03:25:09;;;;;;;23.98;21.42;;;;;;;19.77;72.12;100737.00;5084400;28;20024;-78
2022/08/17 03:27:35;;;;;;;24.20;21.08;;;;;;;19.73;71.96;100746.06;5086470;28;20031;-78
2022/08/17 03:30:02;;;;;;;23.25;20.75;;;;;;;19.71;71.88;100737.41;5078893;28;20032;-78
2022/08/17 03:32:28;;;;;;;23.83;20.27;;;;;;;19.73;72.02;100745.25;5083528;28;20028;-78
2022/08/17 03:34:59;;;;;;;23.35;20.73;;;;;;;19.67;71.82;100746.47;5086739;28;20405;-78
2022/08/17 03:37:24;;;;;;;22.67;19.02;;;;;;;19.65;71.98;100743.09;5087445;28;20035;-78
2022/08/17 03:39:49;;;;;;;21.90;19.60;;;;;;;19.61;72.42;100753.00;5078737;28;20730;-78
2022/08/17 03:42:18;;;;;;;23.30;20.75;;;;;;;19.61;72.41;100749.53;5084012;28;20028;-78
2022/08/17 03:44:48;;;;;;;24.42;20.48;;;;;;;19.62;72.28;100753.88;5084533;28;20020;-78
2022/08/17 03:58:17;;;;;;;24.85;19.63;;;;;;;19.62;72.89;100748.59;5062380;28;20359;-78
2022/08/17 04:00:45;;;;;;;23.13;19.60;;;;;;;19.64;72.70;100751.97;5082108;28;20024;-78
2022/08/17 04:03:11;;;;;;;23.00;20.25;;;;;;;19.63;73.26;100750.28;5074142;28;20386;-78
2022/08/17 04:05:36;;;;;;;24.05;20.27;;;;;;;19.63;73.32;100750.28;5090912;28;20035;-78
2022/08/17 04:08:02;;;;;;;21.98;19.48;;;;;;;19.66;73.44;100755.34;5089983;28;20024;-78
2022/08/17 04:10:29;;;;;;;22.58;19.13;;;;;;;19.66;73.17;100755.34;5085503;28;20024;-78
2022/08/17 04:12:56;;;;;;;22.33;19.58;;;;;;;19.66;73.39;100758.84;5082074;28;20024;-78
2022/08/17 04:15:22;;;;;;;25.48;19.42;;;;;;;19.66;73.09;100760.59;5056344;28;20031;-78
2022/08/17 04:17:47;;;;;;;28.85;19.63;;;;;;;19.65;73.15;100770.34;5089996;28;20028;-78
2022/08/17 04:20:15;;;;;;;25.13;20.20;;;;;;;19.66;73.07;100765.88;5088567;28;20427;-78
2022/08/17 04:23:03;;;;;;;32.33;20.27;;;;;;;19.69;72.12;100765.69;5079792;28;20119;-78
2022/08/17 04:25:32;;;;;;;26.70;19.30;;;;;;;19.65;73.01;100769.47;5083842;28;20471;-77
2022/08/17 04:27:58;;;;;;;28.23;20.13;;;;;;;19.65;73.34;100769.47;5082326;28;20479;-77
2022/08/17 04:30:24;;;;;;;22.83;19.58;;;;;;;19.66;73.15;100765.88;5080750;28;20059;-78
2022/08/17 04:33:14;;;;;;;23.67;19.63;;;;;;;19.66;72.63;100768.53;5081894;28;20028;-78
2022/08/17 04:35:46;;;;;;;22.98;20.08;;;;;;;19.66;73.03;100776.44;5082539;28;20100;-78
2022/08/17 04:38:15;;;;;;;26.10;20.92;;;;;;;19.65;73.34;100780.03;5063092;28;20475;-78
2022/08/17 04:43:27;;;;;;;23.85;19.90;;;;;;;19.59;73.51;100802.38;5086349;28;20501;-78
2022/08/17 04:45:56;;;;;;;24.92;21.80;;;;;;;19.59;73.60;100814.75;5083938;28;20435;-78
2022/08/17 04:48:22;;;;;;;27.50;22.85;;;;;;;19.49;74.53;100817.97;5079803;28;20099;-78
2022/08/17 04:50:49;;;;;;;27.85;24.10;;;;;;;19.39;75.01;100806.31;5086982;28;20033;-78
2022/08/17 04:53:16;;;;;;;27.10;23.23;;;;;;;19.33;75.71;100798.78;5088152;28;20024;-78
2022/08/17 04:55:42;;;;;;;26.13;21.55;;;;;;;19.34;75.95;100800.47;5080145;28;20043;-78
2022/08/17 04:58:08;;;;;;;27.35;21.85;;;;;;;19.35;75.67;100812.72;5084898;28;21691;-77
2022/08/17 05:00:33;;;;;;;24.75;21.35;;;;;;;19.39;75.82;100843.25;5082152;28;20024;-78
2022/08/17 05:02:59;;;;;;;27.48;22.02;;;;;;;19.41;75.86;100851.91;5081328;28;20103;-78
2022/08/17 05:05:30;;;;;;;25.67;21.42;;;;;;;19.42;75.70;100819.31;5084544;28;20024;-78
2022/08/17 05:07:56;;;;;;;;;;;;;;;19.48;72.99;100824.19;5083882;28;20024;-78
2022/08/17 05:10:25;;;;;;;22.83;20.02;;;;;;;19.46;75.76;100848.97;5084733;28;19957;-78
2022/08/17 05:13:05;;;;;;;25.33;19.85;;;;;;;19.46;75.29;100830.50;5085243;28;20514;-79
2022/08/17 05:15:32;;;;;;;22.92;20.45;;;;;;;19.47;75.97;100835.69;5090230;28;20031;-78
2022/08/17 05:17:57;;;;;;;22.98;20.02;;;;;;;19.49;76.10;100825.06;5085151;28;20557;-78
2022/08/17 05:20:23;;;;;;;23.83;20.83;;;;;;;19.50;76.27;100856.59;5090720;28;20155;-78
2022/08/17 05:22:54;;;;;;;24.42;21.10;;;;;;;19.51;76.02;100831.91;5088294;28;20099;-78
2022/08/17 05:25:25;;;;;;;26.75;20.40;;;;;;;19.52;75.74;100840.69;5080974;28;20479;-78
2022/08/17 05:27:50;;;;;;;22.13;19.73;;;;;;;19.54;76.73;100830.88;5082151;28;20073;-78
2022/08/17 05:30:16;;;;;;;24.25;20.20;;;;;;;19.55;76.31;100833.41;5089767;28;20378;-78
2022/08/17 05:32:58;;;;;;;23.88;20.05;;;;;;;19.59;75.59;100828.78;5079466;28;20403;-77
2022/08/17 05:35:25;;;;;;;22.40;19.60;;;;;;;19.61;75.82;100826.06;5081091;28;20119;-78
2022/08/17 05:37:50;;;;;;;25.05;20.88;;;;;;;19.63;76.08;100830.28;5073014;28;20116;-78
2022/08/17 05:40:16;;;;;;;22.98;20.05;;;;;;;19.66;75.98;100829.22;5078019;28;20028;-78
2022/08/17 05:42:42;;;;;;;23.20;19.88;;;;;;;19.68;76.07;100819.41;5086852;28;20364;-78
2022/08/17 05:45:09;;;;;;;22.20;19.48;;;;;;;19.68;76.03;100828.22;5086498;28;20028;-78
2022/08/17 05:47:36;;;;;;;22.40;19.70;;;;;;;19.70;75.99;100815.75;5073547;28;20031;-78
2022/08/17 05:50:02;;;;;;;22.95;20.45;;;;;;;19.73;75.97;100814.69;5073825;28;20048;-78
2022/08/17 05:52:49;;;;;;;22.98;20.15;;;;;;;19.76;75.02;100814.50;5084206;28;20375;-78
2022/08/17 05:55:40;;;;;;;24.27;20.02;;;;;;;19.77;75.69;100810.91;5075743;28;20035;-77
2022/08/17 05:58:15;;;;;;;23.13;19.10;;;;;;;19.80;75.21;100805.44;5080441;28;20048;-78
2022/08/17 06:01:07;;;;;;;22.05;19.23;;;;;;;19.82;75.34;100792.97;5080687;28;20404;-78
2022/08/17 06:03:52;;;;;;;23.25;19.25;;;;;;;19.85;75.80;100797.22;5084426;28;20030;-78
2022/08/17 06:06:24;;;;;;;23.52;18.67;;;;;;;19.86;75.87;100799.75;5078793;28;20024;-78
2022/08/17 06:08:52;;;;;;;21.90;18.45;;;;;;;19.93;76.08;100796.75;5086068;28;20038;-78
2022/08/17 06:11:33;;;;;;;23.75;18.75;;;;;;;19.97;75.18;100796.44;5084839;28;20495;-77
2022/08/17 06:14:15;;;;;;;21.45;19.00;;;;;;;20.05;75.97;100806.50;5078786;28;20040;-78
2022/08/17 06:16:45;;;;;;;21.92;19.10;;;;;;;20.12;76.01;100804.28;5082475;28;20021;-78
2022/08/17 06:19:32;;;;;;;22.70;18.65;;;;;;;20.25;75.13;100809.59;5082305;28;20020;-78
2022/08/17 06:21:58;;;;;;;21.25;18.95;;;;;;;20.34;75.08;100811.59;5078786;28;20141;-78
2022/08/17 06:24:30;;;;;;;20.48;18.27;;;;;;;20.41;74.95;100806.78;5083638;28;20149;-78
2022/08/17 06:27:05;;;;;;;20.17;18.05;;;;;;;20.49;74.27;100815.00;5090313;28;20024;-78
2022/08/17 06:29:56;;;;;;;22.67;18.00;;;;;;;20.55;73.46;100827.81;5082433;28;20320;-78
2022/08/17 06:32:23;;;;;;;20.85;17.95;;;;;;;20.61;73.64;100826.53;5078327;28;20383;-78
2022/08/17 06:34:51;;;;;;;20.48;18.35;;;;;;;20.66;74.31;100845.59;5062651;28;20020;-78
2022/08/17 06:37:31;;;;;;;21.45;18.08;;;;;;;20.72;73.58;100854.88;5088839;28;20035;-78
2022/08/17 06:40:16;;;;;;;19.15;16.52;;;;;;;20.77;73.02;100856.28;5080603;28;20032;-78
2022/08/17 06:42:53;;;;;;;21.55;18.15;;;;;;;20.79;73.00;100848.25;5080921;28;20089;-78
2022/08/17 06:45:26;;;;;;;21.70;17.85;;;;;;;20.81;72.52;100846.34;5083644;28;20383;-78
2022/08/17 06:48:00;;;;;;;18.92;16.40;;;;;;;20.80;71.77;100846.47;5080164;28;20086;-78
2022/08/17 06:50:52;;;;;;;21.00;17.50;;;;;;;20.84;72.14;100855.84;5081890;28;20029;-78
2022/08/17 06:53:30;;;;;;;20.63;16.73;;;;;;;20.86;72.11;100852.16;5072162;28;20028;-78
2022/08/17 06:56:07;;;;;;;19.00;16.38;;;;;;;20.89;71.54;100851.09;5078280;28;20039;-78
2022/08/17 06:58:34;;;;;;;19.83;16.95;;;;;;;20.88;71.66;100855.56;5076792;28;20023;-78
2022/08/17 07:01:08;;;;;;;39.40;19.13;;;;;;;20.89;71.65;100856.38;5084496;28;20024;-78
2022/08/17 07:03:40;;;;;;;22.40;17.65;;;;;;;20.89;71.04;100856.38;5086844;28;20103;-77
2022/08/17 07:06:16;;;;;;;20.10;16.88;;;;;;;20.92;70.78;100861.47;5059363;28;20391;-78
2022/08/17 07:09:05;;;;;;;22.30;17.73;;;;;;;20.96;70.88;100862.09;5089068;28;20023;-78
2022/08/17 07:11:39;;;;;;;20.88;18.02;;;;;;;20.97;71.19;100861.16;5077760;28;20028;-78
2022/08/17 07:14:35;;;;;;;20.08;17.92;;;;;;;20.98;71.57;100861.06;5087060;28;20032;-78
2022/08/17 07:17:12;;;;;;;19.73;16.65;;;;;;;21.02;71.13;100851.94;5083359;28;20024;-78
2022/08/17 07:19:40;;;;;;;21.45;16.67;;;;;;;21.05;70.56;100854.38;5078823;28;20056;-78
2022/08/17 07:22:33;;;;;;;20.38;16.80;;;;;;;21.08;70.45;100862.09;5083362;28;20035;-78
2022/08/17 07:25:09;;;;;;;20.30;16.92;;;;;;;21.14;70.71;100854.69;5086489;28;20032;-78
2022/08/17 07:27:37;;;;;;;20.40;17.25;;;;;;;21.14;69.69;100849.41;5085388;28;20077;-78
2022/08/17 07:30:18;;;;;;;20.10;17.30;;;;;;;21.16;69.84;100863.38;5079565;28;20016;-78
2022/08/17 07:32:57;;;;;;;18.98;16.58;;;;;;;21.19;70.13;100858.69;5080550;28;20102;-78
2022/08/17 07:35:28;;;;;;;19.98;17.88;;;;;;;21.21;70.26;100866.50;5084656;28;20024;-78
2022/08/17 07:38:09;;;;;;;;;;;;;;;21.29;69.41;100865.97;5088566;28;20089;-78
2022/08/17 07:40:38;;;;;;;18.30;15.73;;;;;;;21.28;69.14;100867.78;5081702;28;19912;-78
2022/08/17 07:43:13;;;;;;;18.02;15.50;;;;;;;21.29;69.46;100872.13;5085401;28;20013;-78
2022/08/17 07:48:42;;;;;;;19.38;15.93;;;;;;;21.33;68.99;100894.78;5087070;28;20031;-78
2022/08/17 07:51:17;;;;;;;18.55;16.08;;;;;;;21.36;68.46;100891.88;5082751;28;20024;-77
2022/08/17 07:53:44;;;;;;;18.83;15.65;;;;;;;21.40;69.09;100899.63;5083053;28;20025;-78
2022/08/17 07:56:09;;;;;;;18.15;15.50;;;;;;;21.45;69.47;100894.84;5082993;28;20480;-78
2022/08/17 07:58:34;;;;;;;23.83;15.77;;;;;;;21.50;68.37;100904.16;5077563;28;20170;-79
2022/08/17 08:01:05;;;;;;;19.45;16.02;;;;;;;21.55;67.95;100913.56;5080906;28;20351;-78
2022/08/17 08:03:32;;;;;;;18.83;14.88;;;;;;;21.59;69.01;100918.53;5091271;28;20024;-78
2022/08/17 08:06:00;;;;;;;17.42;14.75;;;;;;;21.62;68.64;100914.84;5067564;28;20186;-78
2022/08/17 08:08:41;;;;;;;17.67;15.77;;;;;;;21.65;67.86;100923.44;5087267;28;20107;-78
2022/08/17 08:11:16;;;;;;;18.17;15.53;;;;;;;21.64;67.85;100924.38;5085354;28;20042;-78
2022/08/17 08:13:44;;;;;;;21.20;15.05;;;;;;;21.63;67.81;100920.03;5093374;28;20491;-78
2022/08/17 08:16:25;;;;;;;20.50;15.88;;;;;;;21.67;67.60;100916.22;5084743;28;20038;-78
2022/08/17 08:18:58;;;;;;;17.70;15.52;;;;;;;21.66;67.80;100897.78;5088494;28;20035;-78
2022/08/17 08:21:35;;;;;;;25.40;15.85;;;;;;;21.65;67.80;100896.97;5083990;28;20024;-78
2022/08/17 08:24:22;;;;;;;20.17;15.23;;;;;;;21.68;67.93;100893.22;5077515;28;20111;-78
2022/08/17 08:26:58;;;;;;;20.00;15.23;;;;;;;21.68;67.78;100886.16;5088689;28;20082;-78
2022/08/17 08:29:42;;;;;;;19.95;15.43;;;;;;;21.73;67.80;100887.59;5092696;28;20099;-78
2022/08/17 08:32:19;;;;;;;19.10;15.48;;;;;;;21.74;67.31;100894.59;5081483;28;20470;-78
2022/08/17 08:34:52;;;;;;;17.55;15.68;;;;;;;21.75;68.68;100898.94;5081788;28;20020;-78
2022/08/17 08:37:36;;;;;;;21.10;14.70;;;;;;;21.83;69.43;100904.53;5084593;28;20432;-78
2022/08/17 08:40:20;;;;;;;19.52;13.90;;;;;;;21.92;68.37;100903.84;5082915;28;20032;-78
2022/08/17 08:43:11;;;;;;;42.10;16.05;;;;;;;22.04;68.50;100907.41;5076325;28;20020;-78
2022/08/17 08:46:11;;;;;;;20.30;14.65;;;;;;;22.12;67.71;100899.72;5079648;28;20031;-78
2022/08/17 08:49:03;;;;;;;18.40;14.68;;;;;;;22.20;67.09;100887.72;5090783;28;20050;-78
2022/08/17 08:51:56;;;;;;;28.27;15.82;;;;;;;22.26;67.15;100880.16;5074394;28;20094;-78
2022/08/17 08:54:43;;;;;;;18.08;15.48;;;;;;;22.25;66.51;100890.88;5073446;28;20496;-78
2022/08/17 08:57:20;;;;;;;19.45;15.82;;;;;;;22.26;65.53;100880.16;5081685;28;20529;-78
2022/08/17 08:59:51;;;;;;;17.80;15.27;;;;;;;22.31;65.10;100882.44;5062341;28;20427;-78
2022/08/17 09:03:01;;;;;;;18.58;15.18;;;;;;;22.41;65.80;100878.16;5081632;28;20032;-78
2022/08/17 09:05:48;;;;;;;17.52;15.63;;;;;;;22.47;64.98;100878.66;5037178;28;20391;-78
2022/08/17 09:08:37;;;;;;;21.90;16.83;;;;;;;22.45;64.57;100875.31;5085340;28;20020;-78
2022/08/17 09:11:10;;;;;;;17.38;15.68;;;;;;;22.53;65.95;100887.03;5083902;28;20032;-78
2022/08/17 09:13:43;;;;;;;18.05;14.82;;;;;;;22.61;65.07;100894.41;5077967;28;20086;-78
2022/08/17 09:16:16;;;;;;;23.48;16.40;;;;;;;22.67;64.58;100895.75;5081915;28;20056;-79
2022/08/17 09:18:51;;;;;;;20.35;15.05;;;;;;;22.70;64.05;100900.81;5079273;28;20107;-78
2022/08/17 09:21:51;;;;;;;20.48;16.67;;;;;;;22.73;63.85;100908.50;5078933;28;20119;-78
2022/08/17 09:24:23;;;;;;;18.23;15.27;;;;;;;22.75;63.52;100906.59;5074741;28;20032;-78
2022/08/17 09:26:58;;;;;;;18.13;15.40;;;;;;;22.79;63.77;100918.66;5079173;28;20115;-78
2022/08/17 09:29:27;;;;;;;16.77;14.50;;;;;;;22.82;63.67;100918.44;5080569;28;20099;-78
2022/08/17 09:32:02;;;;;;;20.27;16.17;;;;;;;22.87;62.58;100916.28;5078890;28;20505;-78
2022/08/17 09:34:32;;;;;;;19.70;16.70;;;;;;;22.87;63.02;100918.94;5073274;28;20048;-78
2022/08/17 09:37:01;;;;;;;19.85;17.42;;;;;;;22.77;63.00;100914.44;5076451;28;20081;-78
2022/08/17 09:39:33;;;;;;;21.25;16.80;;;;;;;22.68;63.35;100927.44;5081390;28;20062;-78
2022/08/17 09:42:22;;;;;;;19.70;16.42;;;;;;;22.66;63.52;100936.47;5079159;28;20109;-79
2022/08/17 09:45:01;;;;;;;19.08;16.98;;;;;;;22.63;63.50;100942.84;5076642;28;20032;-78
2022/08/17 09:47:33;;;;;;;20.10;16.40;;;;;;;22.59;63.83;100955.50;5081231;28;20046;-79
2022/08/17 09:50:26;;;;;;;18.60;16.08;;;;;;;22.58;63.20;100969.72;5076521;28;20033;-77
2022/08/17 09:52:56;;;;;;;19.02;15.82;;;;;;;22.55;63.46;100979.69;5088512;28;20035;-79
2022/08/17 09:55:28;;;;;;;23.15;16.90;;;;;;;22.56;63.85;100982.22;5082270;28;20066;-78
2022/08/17 09:58:11;;;;;;;20.38;16.48;;;;;;;22.56;63.70;100989.34;5079706;28;20074;-78
2022/08/17 10:00:46;;;;;;;20.05;16.15;;;;;;;22.53;64.03;100987.78;5085399;28;20028;-78
2022/08/17 10:03:33;;;;;;;21.38;16.65;;;;;;;22.49;64.44;100991.63;5073796;28;20024;-78
2022/08/17 10:06:14;;;;;;;18.48;16.40;;;;;;;22.43;64.16;100992.06;5079630;28;20064;-77
2022/08/17 10:09:07;;;;;;;21.50;17.15;;;;;;;22.38;64.59;100997.66;5080233;28;20032;-78
2022/08/17 10:12:28;;;;;;;20.80;17.08;;;;;;;22.34;65.26;100993.53;5081948;28;20506;-77
2022/08/17 10:15:08;;;;;;;19.75;16.75;;;;;;;22.28;65.15;101000.16;5071900;28;20051;-85
2022/08/17 10:18:03;;;;;;;19.48;16.50;;;;;;;22.22;66.50;100995.28;5055754;28;20036;-79
2022/08/17 10:20:40;;;;;;;23.73;17.83;;;;;;;22.17;67.18;101001.88;5082146;28;20672;-77
2022/08/17 10:26:17;;;;;;;20.88;17.27;;;;;;;22.05;67.81;101004.47;5081622;28;20039;-80
2022/08/17 10:28:52;;;;;;;20.95;17.38;;;;;;;22.00;69.35;101009.25;5086834;28;20039;-77
2022/08/17 10:31:27;;;;;;;19.75;16.92;;;;;;;21.93;70.03;101005.34;5077037;28;20028;-77
2022/08/17 10:34:23;;;;;;;21.95;16.80;;;;;;;21.89;69.85;101007.34;5082304;28;20036;-77
2022/08/17 10:37:03;;;;;;;20.27;16.92;;;;;;;21.82;71.06;101003.47;5081040;28;20100;-77
2022/08/17 10:40:03;;;;;;;22.13;17.77;;;;;;;21.72;69.63;100987.38;5080498;28;20033;-78
2022/08/17 10:42:47;;;;;;;21.40;18.00;;;;;;;21.54;70.61;100984.19;5080986;28;20424;-77
2022/08/17 10:45:25;;;;;;;22.35;18.85;;;;;;;21.35;71.96;100980.16;5080771;28;21294;-78
2022/08/17 10:48:04;;;;;;;21.75;18.35;;;;;;;21.21;73.64;100977.63;5079812;28;20127;-78
2022/08/17 10:50:51;;;;;;;22.58;19.50;;;;;;;21.10;73.00;100978.38;5079671;28;20475;-78
2022/08/17 10:53:31;;;;;;;21.90;17.45;;;;;;;21.02;73.82;100976.25;5079640;28;20036;-76
2022/08/17 10:56:12;;;;;;;24.77;20.25;;;;;;;20.96;73.66;100971.38;5080904;28;20474;-78
2022/08/17 10:58:54;;;;;;;23.43;19.10;;;;;;;20.93;75.25;100964.50;5081288;28;20067;-77
2022/08/17 11:01:42;;;;;;;23.15;18.75;;;;;;;20.93;75.30;100963.66;5079422;28;20309;-77
2022/08/17 11:04:16;;;;;;;23.42;18.90;;;;;;;20.95;76.80;100956.47;5031733;28;20093;-77
2022/08/17 11:07:03;;;;;;;22.10;18.73;;;;;;;20.96;76.85;100950.22;5081957;28;20074;-77
2022/08/17 11:09:49;;;;;;;23.20;19.58;;;;;;;20.98;77.09;100953.63;5079118;28;20028;-77
2022/08/17 11:12:41;;;;;;;24.20;19.38;;;;;;;20.99;76.47;100963.25;5080362;28;20036;-77
2022/08/17 11:15:19;;;;;;;24.42;19.55;;;;;;;20.95;76.86;100967.06;5080543;28;20054;-77
2022/08/17 11:18:18;;;;;;;23.05;18.95;;;;;;;20.93;75.76;100971.59;5079531;28;20032;-78
2022/08/17 11:20:56;;;;;;;22.45;18.90;;;;;;;20.91;77.33;100968.19;5079904;28;20046;-77
2022/08/17 11:23:53;;;;;;;23.33;20.10;;;;;;;20.90;75.57;100963.84;5078333;28;20360;-77
2022/08/17 11:26:29;;;;;;;26.23;20.27;;;;;;;20.86;76.94;100972.94;5081580;28;20545;-77
2022/08/17 11:29:00;;;;;;;22.52;19.90;;;;;;;20.82;78.15;100977.59;5080751;28;20035;-77
2022/08/17 11:31:39;;;;;;;24.55;20.85;;;;;;;20.79;77.60;100987.53;5080776;28;20032;-77
2022/08/17 11:34:25;;;;;;;23.45;19.13;;;;;;;20.77;76.92;100990.28;5079570;28;20483;-77
2022/08/17 11:37:28;;;;;;;23.38;20.85;;;;;;;20.77;77.41;100983.19;5079146;28;20041;-77
2022/08/17 11:40:05;;;;;;;23.77;20.95;;;;;;;20.83;77.40;100992.53;5078872;28;20036;-77
2022/08/17 11:43:14;;;;;;;23.15;20.45;;;;;;;20.88;77.17;100992.19;5081598;28;20268;-77
2022/08/17 11:46:15;;;;;;;25.63;20.60;;;;;;;20.90;76.81;101000.88;5078093;28;20043;-77
2022/08/17 11:52:03;;;;;;;25.58;20.25;;;;;;;20.88;77.61;101013.34;5076038;28;21880;-77
2022/08/17 11:54:28;;;;;;;25.35;20.45;;;;;;;20.82;77.61;101016.44;5078030;28;20028;-77
2022/08/17 11:56:55;;;;;;;27.98;22.50;;;;;;;20.79;77.80;101020.09;5079175;28;20050;-77
2022/08/17 11:59:37;;;;;;;25.60;21.35;;;;;;;20.74;77.69;101019.56;5083627;28;20031;-77
2022/08/17 12:02:37;;;;;;;25.13;22.27;;;;;;;20.72;77.87;101030.22;5077042;28;20134;-77